sensor_id;sensor_type;location;lat;lon;timestamp;pressure;altitude;pressure_sealevel;temperature;humidity
55540;BME280;41384;51.418;7.286;2023-07-13T00:00:41;99756.84;;;20.24;52.50
55540;BME280;41384;51.418;7.286;2023-07-13T00:03:06;99759.06;;;20.02;53.11
55540;BME280;41384;51.418;7.286;2023-07-13T00:05:32;99764.13;;;20.08;52.97
55540;BME280;41384;51.418;7.286;2023-07-13T00:07:57;99759.34;;;19.95;53.17
55540;BME280;41384;51.418;7.286;2023-07-13T00:10:22;99757.69;;;20.20;51.87
55540;BME280;41384;51.418;7.286;2023-07-13T00:12:48;99761.47;;;19.98;52.96
55540;BME280;41384;51.418;7.286;2023-07-13T00:15:17;99760.41;;;19.99;53.31
55540;BME280;41384;51.418;7.286;2023-07-13T00:17:47;99763.88;;;20.05;53.03
55540;BME280;41384;51.418;7.286;2023-07-13T00:20:13;99765.75;;;20.04;52.70
55540;BME280;41384;51.418;7.286;2023-07-13T00:22:38;99767.38;;;20.05;52.58
55540;BME280;41384;51.418;7.286;2023-07-13T00:25:04;99761.72;;;20.07;52.41
55540;BME280;41384;51.418;7.286;2023-07-13T00:27:29;99760.66;;;19.97;52.70
55540;BME280;41384;51.418;7.286;2023-07-13T00:29:57;99763.03;;;19.83;53.73
55540;BME280;41384;51.418;7.286;2023-07-13T00:32:22;99757.16;;;19.87;53.24
55540;BME280;41384;51.418;7.286;2023-07-13T00:34:47;99759.06;;;19.71;53.91
55540;BME280;41384;51.418;7.286;2023-07-13T00:37:13;99755.03;;;19.47;55.12
55540;BME280;41384;51.418;7.286;2023-07-13T00:39:38;99756.91;;;19.73;53.69
55540;BME280;41384;51.418;7.286;2023-07-13T00:42:04;99757.69;;;19.83;52.80
55540;BME280;41384;51.418;7.286;2023-07-13T00:44:30;99755.84;;;19.53;54.86
55540;BME280;41384;51.418;7.286;2023-07-13T00:46:56;99760.13;;;19.64;53.95
55540;BME280;41384;51.418;7.286;2023-07-13T00:49:24;99752.88;;;19.65;54.10
55540;BME280;41384;51.418;7.286;2023-07-13T00:51:54;99753.69;;;19.76;53.53
55540;BME280;41384;51.418;7.286;2023-07-13T00:54:30;99759.06;;;19.81;52.90
55540;BME280;41384;51.418;7.286;2023-07-13T00:56:59;99756.09;;;19.82;52.80
55540;BME280;41384;51.418;7.286;2023-07-13T00:59:25;99755.56;;;19.80;52.82
55540;BME280;41384;51.418;7.286;2023-07-13T01:01:51;99755.03;;;19.73;53.55
55540;BME280;41384;51.418;7.286;2023-07-13T01:04:17;99753.97;;;19.69;53.67
55540;BME280;41384;51.418;7.286;2023-07-13T01:06:43;99752.88;;;19.65;53.40
55540;BME280;41384;51.418;7.286;2023-07-13T01:09:10;99753.16;;;19.74;53.13
55540;BME280;41384;51.418;7.286;2023-07-13T01:11:37;99748.88;;;19.78;52.79
55540;BME280;41384;51.418;7.286;2023-07-13T01:14:03;99742.19;;;19.65;53.38
55540;BME280;41384;51.418;7.286;2023-07-13T01:16:30;99756.59;;;19.02;56.59
55540;BME280;41384;51.418;7.286;2023-07-13T01:18:57;99751.56;;;19.47;54.47
55540;BME280;41384;51.418;7.286;2023-07-13T01:21:28;99748.84;;;19.21;55.44
55540;BME280;41384;51.418;7.286;2023-07-13T01:23:54;99737.38;;;19.46;54.74
55540;BME280;41384;51.418;7.286;2023-07-13T01:26:20;99748.06;;;19.41;55.43
55540;BME280;41384;51.418;7.286;2023-07-13T01:28:45;99751.25;;;19.17;55.91
55540;BME280;41384;51.418;7.286;2023-07-13T01:31:11;99749.13;;;19.35;55.22
55540;BME280;41384;51.418;7.286;2023-07-13T01:33:38;99737.63;;;19.29;55.09
55540;BME280;41384;51.418;7.286;2023-07-13T01:36:06;99743.25;;;19.43;54.40
55540;BME280;41384;51.418;7.286;2023-07-13T01:38:32;99746.47;;;19.45;54.13
55540;BME280;41384;51.418;7.286;2023-07-13T01:40:57;99744.59;;;19.40;54.49
55540;BME280;41384;51.418;7.286;2023-07-13T01:43:23;99743.78;;;19.40;54.29
55540;BME280;41384;51.418;7.286;2023-07-13T01:45:48;99742.97;;;19.39;54.27
55540;BME280;41384;51.418;7.286;2023-07-13T01:48:13;99745.94;;;19.28;54.84
55540;BME280;41384;51.418;7.286;2023-07-13T01:50:39;99748.06;;;19.31;54.79
55540;BME280;41384;51.418;7.286;2023-07-13T01:53:04;99744.84;;;19.34;54.77
55540;BME280;41384;51.418;7.286;2023-07-13T01:55:31;99752.88;;;19.29;54.67
55540;BME280;41384;51.418;7.286;2023-07-13T01:57:56;99751.00;;;19.29;54.73
55540;BME280;41384;51.418;7.286;2023-07-13T02:00:22;99753.97;;;19.33;55.01
55540;BME280;41384;51.418;7.286;2023-07-13T02:02:47;99758.22;;;19.23;55.43
55540;BME280;41384;51.418;7.286;2023-07-13T02:05:13;99761.44;;;19.25;54.99
55540;BME280;41384;51.418;7.286;2023-07-13T02:07:39;99759.31;;;19.33;54.72
55540;BME280;41384;51.418;7.286;2023-07-13T02:10:05;99753.13;;;19.22;55.01
55540;BME280;41384;51.418;7.286;2023-07-13T02:12:31;99759.56;;;19.21;55.08
55540;BME280;41384;51.418;7.286;2023-07-13T02:14:56;99759.81;;;19.19;54.99
55540;BME280;41384;51.418;7.286;2023-07-13T02:17:21;99750.75;;;19.31;54.57
55540;BME280;41384;51.418;7.286;2023-07-13T02:19:47;99757.94;;;19.20;55.31
55540;BME280;41384;51.418;7.286;2023-07-13T02:22:12;99754.47;;;19.19;55.18
55540;BME280;41384;51.418;7.286;2023-07-13T02:24:37;99761.44;;;19.25;55.13
55540;BME280;41384;51.418;7.286;2023-07-13T02:27:03;99760.38;;;19.27;55.39
55540;BME280;41384;51.418;7.286;2023-07-13T02:29:29;99759.81;;;19.19;55.18
55540;BME280;41384;51.418;7.286;2023-07-13T02:31:54;99759.31;;;19.22;54.75
55540;BME280;41384;51.418;7.286;2023-07-13T02:34:19;99757.69;;;19.16;55.08
55540;BME280;41384;51.418;7.286;2023-07-13T02:36:45;99749.66;;;19.21;55.19
55540;BME280;41384;51.418;7.286;2023-07-13T02:39:11;99752.34;;;19.27;55.00
55540;BME280;41384;51.418;7.286;2023-07-13T02:41:37;99749.66;;;19.27;55.47
55540;BME280;41384;51.418;7.286;2023-07-13T02:44:02;99752.06;;;19.18;55.53
55540;BME280;41384;51.418;7.286;2023-07-13T02:46:33;99754.75;;;19.28;55.21
55540;BME280;41384;51.418;7.286;2023-07-13T02:48:59;99755.56;;;19.29;55.31
55540;BME280;41384;51.418;7.286;2023-07-13T02:51:24;99750.75;;;19.31;54.97
55540;BME280;41384;51.418;7.286;2023-07-13T02:53:50;99744.84;;;19.18;55.70
55540;BME280;41384;51.418;7.286;2023-07-13T02:56:15;99744.31;;;19.11;55.77
55540;BME280;41384;51.418;7.286;2023-07-13T02:58:40;99746.44;;;19.14;55.69
55540;BME280;41384;51.418;7.286;2023-07-13T03:01:08;99755.78;;;19.06;56.24
55540;BME280;41384;51.418;7.286;2023-07-13T03:03:34;99757.59;;;18.95;56.39
55540;BME280;41384;51.418;7.286;2023-07-13T03:06:01;99765.03;;;18.78;57.38
55540;BME280;41384;51.418;7.286;2023-07-13T03:08:27;99756.25;;;18.93;56.70
55540;BME280;41384;51.418;7.286;2023-07-13T03:11:04;99761.31;;;18.94;56.84
55540;BME280;41384;51.418;7.286;2023-07-13T03:13:30;99762.94;;;18.95;57.01
55540;BME280;41384;51.418;7.286;2023-07-13T03:15:55;99757.38;;;19.02;57.14
55540;BME280;41384;51.418;7.286;2023-07-13T03:18:20;99748.75;;;18.90;57.64
55540;BME280;41384;51.418;7.286;2023-07-13T03:20:46;99765.50;;;18.59;58.62
55540;BME280;41384;51.418;7.286;2023-07-13T03:23:11;99760.25;;;18.90;57.75
55540;BME280;41384;51.418;7.286;2023-07-13T03:25:36;99763.72;;;18.80;58.17
55540;BME280;41384;51.418;7.286;2023-07-13T03:28:02;99771.72;;;18.75;58.24
55540;BME280;41384;51.418;7.286;2023-07-13T03:30:27;99781.06;;;18.78;58.31
55540;BME280;41384;51.418;7.286;2023-07-13T03:32:52;99773.03;;;18.73;58.58
55540;BME280;41384;51.418;7.286;2023-07-13T03:35:18;99769.28;;;18.74;59.02
55540;BME280;41384;51.418;7.286;2023-07-13T03:37:43;99771.72;;;18.75;58.70
55540;BME280;41384;51.418;7.286;2023-07-13T03:40:09;99773.03;;;18.73;58.88
55540;BME280;41384;51.418;7.286;2023-07-13T03:42:35;99775.69;;;18.73;58.83
55540;BME280;41384;51.418;7.286;2023-07-13T03:45:00;99775.69;;;18.67;59.39
55540;BME280;41384;51.418;7.286;2023-07-13T03:47:25;99781.53;;;18.59;59.44
55540;BME280;41384;51.418;7.286;2023-07-13T03:49:51;99789.31;;;18.66;59.40
55540;BME280;41384;51.418;7.286;2023-07-13T03:52:16;99784.72;;;18.56;60.06
55540;BME280;41384;51.418;7.286;2023-07-13T03:54:41;99787.44;;;18.66;60.15
55540;BME280;41384;51.418;7.286;2023-07-13T03:57:08;99794.13;;;18.64;60.44
55540;BME280;41384;51.418;7.286;2023-07-13T03:59:33;99797.03;;;18.57;60.31
55540;BME280;41384;51.418;7.286;2023-07-13T04:01:59;99796.50;;;18.60;60.27
55540;BME280;41384;51.418;7.286;2023-07-13T04:04:24;99793.31;;;18.69;59.98
55540;BME280;41384;51.418;7.286;2023-07-13T04:06:49;99800.72;;;18.51;60.66
55540;BME280;41384;51.418;7.286;2023-07-13T04:09:14;99802.59;;;18.50;61.15
55540;BME280;41384;51.418;7.286;2023-07-13T04:11:40;99802.16;;;18.69;60.53
55540;BME280;41384;51.418;7.286;2023-07-13T04:14:05;99809.00;;;18.49;61.09
55540;BME280;41384;51.418;7.286;2023-07-13T04:16:31;99802.38;;;18.57;61.37
55540;BME280;41384;51.418;7.286;2023-07-13T04:18:57;99802.47;;;18.83;60.44
55540;BME280;41384;51.418;7.286;2023-07-13T04:21:26;99809.38;;;18.69;61.00
55540;BME280;41384;51.418;7.286;2023-07-13T04:23:52;99807.78;;;18.73;60.79
55540;BME280;41384;51.418;7.286;2023-07-13T04:26:17;99808.22;;;18.54;61.27
55540;BME280;41384;51.418;7.286;2023-07-13T04:28:46;99813.56;;;18.54;62.04
55540;BME280;41384;51.418;7.286;2023-07-13T04:31:11;99814.13;;;18.56;61.95
55540;BME280;41384;51.418;7.286;2023-07-13T04:33:36;99817.63;;;18.62;61.56
55540;BME280;41384;51.418;7.286;2023-07-13T04:36:01;99809.28;;;18.48;62.21
55540;BME280;41384;51.418;7.286;2023-07-13T04:38:29;99809.63;;;18.67;61.66
55540;BME280;41384;51.418;7.286;2023-07-13T04:41:00;99819.25;;;18.63;61.74
55540;BME280;41384;51.418;7.286;2023-07-13T04:43:26;99822.13;;;18.51;62.35
55540;BME280;41384;51.418;7.286;2023-07-13T04:45:52;99816.72;;;18.41;62.96
55540;BME280;41384;51.418;7.286;2023-07-13T04:48:18;99823.13;;;18.40;62.78
55540;BME280;41384;51.418;7.286;2023-07-13T04:50:43;99824.72;;;18.41;63.17
55540;BME280;41384;51.418;7.286;2023-07-13T04:53:09;99823.72;;;18.52;63.04
55540;BME280;41384;51.418;7.286;2023-07-13T04:55:35;99822.16;;;18.61;62.94
55540;BME280;41384;51.418;7.286;2023-07-13T04:58:01;99820.88;;;18.69;62.47
55540;BME280;41384;51.418;7.286;2023-07-13T05:00:27;99822.34;;;18.49;62.84
55540;BME280;41384;51.418;7.286;2023-07-13T05:02:55;99820.94;;;18.31;63.75
55540;BME280;41384;51.418;7.286;2023-07-13T05:05:20;99816.03;;;18.61;63.48
55540;BME280;41384;51.418;7.286;2023-07-13T05:07:45;99825.34;;;18.58;63.53
55540;BME280;41384;51.418;7.286;2023-07-13T05:10:10;99827.69;;;18.44;63.63
55540;BME280;41384;51.418;7.286;2023-07-13T05:12:36;99830.41;;;18.55;63.97
55540;BME280;41384;51.418;7.286;2023-07-13T05:15:02;99825.34;;;18.53;63.71
55540;BME280;41384;51.418;7.286;2023-07-13T05:17:28;99835.53;;;18.61;63.37
55540;BME280;41384;51.418;7.286;2023-07-13T05:19:53;99839.38;;;18.81;62.98
55540;BME280;41384;51.418;7.286;2023-07-13T05:22:18;99841.16;;;18.60;64.09
55540;BME280;41384;51.418;7.286;2023-07-13T05:24:43;99838.78;;;18.74;63.80
55540;BME280;41384;51.418;7.286;2023-07-13T05:27:09;99848.03;;;18.50;64.60
55540;BME280;41384;51.418;7.286;2023-07-13T05:29:34;99846.94;;;18.46;64.88
55540;BME280;41384;51.418;7.286;2023-07-13T05:31:59;99850.03;;;18.76;64.06
55540;BME280;41384;51.418;7.286;2023-07-13T05:34:24;99853.00;;;18.79;64.46
55540;BME280;41384;51.418;7.286;2023-07-13T05:36:50;99851.69;;;18.87;63.96
55540;BME280;41384;51.418;7.286;2023-07-13T05:39:16;99855.47;;;18.96;63.84
55540;BME280;41384;51.418;7.286;2023-07-13T05:41:41;99859.41;;;18.78;64.51
55540;BME280;41384;51.418;7.286;2023-07-13T05:44:06;99859.78;;;18.98;63.82
55540;BME280;41384;51.418;7.286;2023-07-13T05:46:32;99848.78;;;18.94;64.12
55540;BME280;41384;51.418;7.286;2023-07-13T05:48:57;99857.09;;;18.98;64.47
55540;BME280;41384;51.418;7.286;2023-07-13T05:51:22;99857.34;;;18.96;64.61
55540;BME280;41384;51.418;7.286;2023-07-13T05:53:47;99862.22;;;19.04;64.63
55540;BME280;41384;51.418;7.286;2023-07-13T05:56:13;99853.56;;;18.87;64.93
55540;BME280;41384;51.418;7.286;2023-07-13T05:58:38;99859.72;;;18.87;65.52
55540;BME280;41384;51.418;7.286;2023-07-13T06:01:08;99863.16;;;18.77;65.76
55540;BME280;41384;51.418;7.286;2023-07-13T06:03:34;99866.03;;;18.65;66.88
55540;BME280;41384;51.418;7.286;2023-07-13T06:05:59;99869.25;;;18.67;67.30
55540;BME280;41384;51.418;7.286;2023-07-13T06:08:28;99870.91;;;18.79;67.11
55540;BME280;41384;51.418;7.286;2023-07-13T06:10:53;99868.56;;;18.88;66.91
55540;BME280;41384;51.418;7.286;2023-07-13T06:13:18;99875.50;;;18.84;66.80
55540;BME280;41384;51.418;7.286;2023-07-13T06:15:50;99867.16;;;18.80;67.46
55540;BME280;41384;51.418;7.286;2023-07-13T06:18:15;99875.72;;;18.77;67.91
55540;BME280;41384;51.418;7.286;2023-07-13T06:20:40;99878.94;;;18.79;67.86
55540;BME280;41384;51.418;7.286;2023-07-13T06:23:06;99879.06;;;19.00;67.04
55540;BME280;41384;51.418;7.286;2023-07-13T06:25:31;99884.31;;;18.89;67.76
55540;BME280;41384;51.418;7.286;2023-07-13T06:27:56;99873.78;;;18.62;68.72
55540;BME280;41384;51.418;7.286;2023-07-13T06:30:21;99887.28;;;18.88;68.18
55540;BME280;41384;51.418;7.286;2023-07-13T06:32:47;99887.53;;;18.86;68.15
55540;BME280;41384;51.418;7.286;2023-07-13T06:35:12;99884.84;;;18.86;68.54
55540;BME280;41384;51.418;7.286;2023-07-13T06:37:38;99889.19;;;18.98;67.93
55540;BME280;41384;51.418;7.286;2023-07-13T06:40:04;99884.56;;;18.83;68.73
55540;BME280;41384;51.418;7.286;2023-07-13T06:42:29;99899.44;;;19.06;68.25
55540;BME280;41384;51.418;7.286;2023-07-13T06:44:55;99899.56;;;18.84;69.26
55540;BME280;41384;51.418;7.286;2023-07-13T06:47:20;99896.91;;;18.89;69.06
55540;BME280;41384;51.418;7.286;2023-07-13T06:49:45;99902.66;;;19.08;68.65
55540;BME280;41384;51.418;7.286;2023-07-13T06:52:10;99897.47;;;18.96;69.45
55540;BME280;41384;51.418;7.286;2023-07-13T06:54:36;99909.41;;;19.26;68.67
55540;BME280;41384;51.418;7.286;2023-07-13T06:57:01;99905.84;;;19.05;69.07
55540;BME280;41384;51.418;7.286;2023-07-13T06:59:26;99909.34;;;19.16;68.57
55540;BME280;41384;51.418;7.286;2023-07-13T07:01:51;99905.44;;;18.86;69.26
55540;BME280;41384;51.418;7.286;2023-07-13T07:04:17;99915.75;;;19.09;68.91
55540;BME280;41384;51.418;7.286;2023-07-13T07:06:42;99915.50;;;19.11;69.33
55540;BME280;41384;51.418;7.286;2023-07-13T07:09:07;99915.84;;;19.30;68.67
55540;BME280;41384;51.418;7.286;2023-07-13T07:11:34;99922.78;;;19.31;68.43
55540;BME280;41384;51.418;7.286;2023-07-13T07:13:59;99925.19;;;19.28;68.12
55540;BME280;41384;51.418;7.286;2023-07-13T07:16:24;99923.13;;;19.45;67.74
55540;BME280;41384;51.418;7.286;2023-07-13T07:18:49;99918.53;;;19.35;68.29
55540;BME280;41384;51.418;7.286;2023-07-13T07:21:15;99922.03;;;19.41;67.96
55540;BME280;41384;51.418;7.286;2023-07-13T07:23:40;99916.19;;;19.60;67.74
55540;BME280;41384;51.418;7.286;2023-07-13T07:26:05;99921.03;;;19.68;67.30
55540;BME280;41384;51.418;7.286;2023-07-13T07:28:33;99922.94;;;19.67;67.95
55540;BME280;41384;51.418;7.286;2023-07-13T07:30:58;99924.88;;;19.93;66.92
55540;BME280;41384;51.418;7.286;2023-07-13T07:33:24;99922.19;;;19.93;66.41
55540;BME280;41384;51.418;7.286;2023-07-13T07:35:50;99928.03;;;19.84;67.12
55540;BME280;41384;51.418;7.286;2023-07-13T07:38:15;99924.03;;;19.82;66.69
55540;BME280;41384;51.418;7.286;2023-07-13T07:40:41;99926.69;;;19.77;67.01
55540;BME280;41384;51.418;7.286;2023-07-13T07:43:07;99927.50;;;19.88;66.74
55540;BME280;41384;51.418;7.286;2023-07-13T07:45:33;99926.97;;;19.86;67.17
55540;BME280;41384;51.418;7.286;2023-07-13T07:47:58;99932.41;;;20.06;66.78
55540;BME280;41384;51.418;7.286;2023-07-13T07:50:25;99925.97;;;20.18;66.48
55540;BME280;41384;51.418;7.286;2023-07-13T07:52:50;99933.47;;;20.21;66.29
55540;BME280;41384;51.418;7.286;2023-07-13T07:55:16;99922.22;;;20.24;66.20
55540;BME280;41384;51.418;7.286;2023-07-13T07:57:41;99926.22;;;20.21;66.22
55540;BME280;41384;51.418;7.286;2023-07-13T08:00:07;99930.78;;;20.31;65.84
55540;BME280;41384;51.418;7.286;2023-07-13T08:02:32;99937.50;;;20.34;65.26
55540;BME280;41384;51.418;7.286;2023-07-13T08:04:57;99931.31;;;20.28;65.76
55540;BME280;41384;51.418;7.286;2023-07-13T08:07:23;99933.72;;;20.24;66.00
55540;BME280;41384;51.418;7.286;2023-07-13T08:09:52;99924.06;;;20.18;65.85
55540;BME280;41384;51.418;7.286;2023-07-13T08:12:17;99929.44;;;20.29;65.00
55540;BME280;41384;51.418;7.286;2023-07-13T08:14:43;99930.78;;;20.16;65.92
55540;BME280;41384;51.418;7.286;2023-07-13T08:17:08;99935.88;;;20.38;65.14
55540;BME280;41384;51.418;7.286;2023-07-13T08:19:33;99934.00;;;20.44;64.93
55540;BME280;41384;51.418;7.286;2023-07-13T08:21:58;99931.31;;;20.44;65.01
55540;BME280;41384;51.418;7.286;2023-07-13T08:24:24;99922.75;;;20.41;65.41
55540;BME280;41384;51.418;7.286;2023-07-13T08:26:50;99927.03;;;20.37;65.51
55540;BME280;41384;51.418;7.286;2023-07-13T08:29:16;99925.97;;;20.28;65.23
55540;BME280;41384;51.418;7.286;2023-07-13T08:31:41;99923.03;;;20.35;64.95
55540;BME280;41384;51.418;7.286;2023-07-13T08:34:06;99921.13;;;20.35;65.02
55540;BME280;41384;51.418;7.286;2023-07-13T08:36:31;99920.56;;;20.64;64.74
55540;BME280;41384;51.418;7.286;2023-07-13T08:38:57;99927.50;;;20.76;64.53
55540;BME280;41384;51.418;7.286;2023-07-13T08:41:22;99921.63;;;20.89;63.73
55540;BME280;41384;51.418;7.286;2023-07-13T08:43:55;99925.94;;;20.80;63.67
55540;BME280;41384;51.418;7.286;2023-07-13T08:46:37;99918.41;;;20.77;62.81
55540;BME280;41384;51.418;7.286;2023-07-13T08:49:10;99929.94;;;20.77;62.67
55540;BME280;41384;51.418;7.286;2023-07-13T08:51:45;99924.81;;;20.76;63.79
55540;BME280;41384;51.418;7.286;2023-07-13T08:54:19;99921.09;;;20.87;63.46
55540;BME280;41384;51.418;7.286;2023-07-13T08:56:46;99923.19;;;21.01;63.73
55540;BME280;41384;51.418;7.286;2023-07-13T08:59:16;99917.31;;;20.93;63.29
55540;BME280;41384;51.418;7.286;2023-07-13T09:04:19;99919.94;;;21.14;63.11
55540;BME280;41384;51.418;7.286;2023-07-13T09:07:06;99915.41;;;20.99;61.97
55540;BME280;41384;51.418;7.286;2023-07-13T09:09:50;99925.38;;;20.93;61.53
55540;BME280;41384;51.418;7.286;2023-07-13T09:12:30;99922.56;;;21.24;61.32
55540;BME280;41384;51.418;7.286;2023-07-13T09:15:02;99929.44;;;21.46;60.67
55540;BME280;41384;51.418;7.286;2023-07-13T09:17:33;99917.91;;;21.51;60.46
55540;BME280;41384;51.418;7.286;2023-07-13T09:20:23;99919.44;;;21.67;61.18
55540;BME280;41384;51.418;7.286;2023-07-13T09:22:50;99923.41;;;21.80;60.29
55540;BME280;41384;51.418;7.286;2023-07-13T09:25:36;99923.16;;;21.71;59.26
55540;BME280;41384;51.418;7.286;2023-07-13T09:28:15;99922.91;;;21.63;59.23
55540;BME280;41384;51.418;7.286;2023-07-13T09:33:21;99929.25;;;21.88;59.52
55540;BME280;41384;51.418;7.286;2023-07-13T09:35:47;99930.44;;;21.71;59.58
55540;BME280;41384;51.418;7.286;2023-07-13T09:38:19;99928.56;;;21.61;58.82
55540;BME280;41384;51.418;7.286;2023-07-13T09:41:14;99925.13;;;21.50;58.76
55540;BME280;41384;51.418;7.286;2023-07-13T09:44:09;99927.78;;;21.55;59.35
55540;BME280;41384;51.418;7.286;2023-07-13T09:46:36;99932.34;;;21.65;60.09
55540;BME280;41384;51.418;7.286;2023-07-13T09:49:01;99926.34;;;21.79;59.26
55540;BME280;41384;51.418;7.286;2023-07-13T09:51:27;99929.19;;;21.98;59.37
55540;BME280;41384;51.418;7.286;2023-07-13T09:53:53;99929.34;;;22.12;58.55
55540;BME280;41384;51.418;7.286;2023-07-13T09:56:25;99926.03;;;22.25;58.02
55540;BME280;41384;51.418;7.286;2023-07-13T09:58:51;99934.59;;;22.27;57.81
55540;BME280;41384;51.418;7.286;2023-07-13T10:01:31;99929.66;;;22.05;58.13
55540;BME280;41384;51.418;7.286;2023-07-13T10:03:57;99927.22;;;22.09;58.60
55540;BME280;41384;51.418;7.286;2023-07-13T10:06:23;99929.53;;;22.21;57.80
55540;BME280;41384;51.418;7.286;2023-07-13T10:08:52;99942.06;;;22.01;57.82
55540;BME280;41384;51.418;7.286;2023-07-13T10:11:22;99944.72;;;22.06;58.68
55540;BME280;41384;51.418;7.286;2023-07-13T10:13:56;99940.09;;;21.72;59.08
55540;BME280;41384;51.418;7.286;2023-07-13T10:16:24;99949.88;;;21.97;58.76
55540;BME280;41384;51.418;7.286;2023-07-13T10:18:56;99942.41;;;22.24;59.21
55540;BME280;41384;51.418;7.286;2023-07-13T10:21:26;99952.22;;;22.09;57.82
55540;BME280;41384;51.418;7.286;2023-07-13T10:24:09;99946.31;;;22.07;57.70
55540;BME280;41384;51.418;7.286;2023-07-13T10:26:39;99951.09;;;22.15;57.70
55540;BME280;41384;51.418;7.286;2023-07-13T10:29:11;99952.03;;;22.30;57.00
55540;BME280;41384;51.418;7.286;2023-07-13T10:31:39;99945.47;;;22.47;57.11
55540;BME280;41384;51.418;7.286;2023-07-13T10:34:09;99946.94;;;22.34;57.04
55540;BME280;41384;51.418;7.286;2023-07-13T10:36:47;99958.06;;;22.16;57.11
55540;BME280;41384;51.418;7.286;2023-07-13T10:39:17;99951.31;;;22.24;57.88
55540;BME280;41384;51.418;7.286;2023-07-13T10:41:44;99955.88;;;22.58;57.92
55540;BME280;41384;51.418;7.286;2023-07-13T10:44:19;99956.53;;;22.74;56.48
55540;BME280;41384;51.418;7.286;2023-07-13T10:46:46;99944.19;;;22.73;56.39
55540;BME280;41384;51.418;7.286;2023-07-13T10:49:12;99955.34;;;22.56;56.20
55540;BME280;41384;51.418;7.286;2023-07-13T10:51:38;99960.41;;;22.63;55.76
55540;BME280;41384;51.418;7.286;2023-07-13T10:54:28;99962.13;;;22.49;55.49
55540;BME280;41384;51.418;7.286;2023-07-13T10:57:19;99970.41;;;22.57;55.10
55540;BME280;41384;51.418;7.286;2023-07-13T11:02:55;99975.31;;;22.50;55.44
55540;BME280;41384;51.418;7.286;2023-07-13T11:05:29;99981.34;;;22.32;55.91
55540;BME280;41384;51.418;7.286;2023-07-13T11:08:03;99984.69;;;22.18;56.37
55540;BME280;41384;51.418;7.286;2023-07-13T11:10:52;99978.59;;;22.02;55.90
55540;BME280;41384;51.418;7.286;2023-07-13T11:13:55;99976.91;;;22.11;55.56
55540;BME280;41384;51.418;7.286;2023-07-13T11:19:08;99972.56;;;22.21;56.10
55540;BME280;41384;51.418;7.286;2023-07-13T11:21:34;99974.56;;;22.39;55.47
55540;BME280;41384;51.418;7.286;2023-07-13T11:29:23;99972.91;;;22.43;54.70
55540;BME280;41384;51.418;7.286;2023-07-13T11:31:55;99969.94;;;22.50;55.00
55540;BME280;41384;51.418;7.286;2023-07-13T11:34:27;99972.78;;;22.64;54.58
55540;BME280;41384;51.418;7.286;2023-07-13T11:36:54;99967.94;;;22.91;54.29
55540;BME280;41384;51.418;7.286;2023-07-13T11:39:36;99966.72;;;22.78;53.23
55540;BME280;41384;51.418;7.286;2023-07-13T11:42:05;99958.25;;;22.65;53.95
55540;BME280;41384;51.418;7.286;2023-07-13T11:44:32;99967.66;;;22.92;53.26
55540;BME280;41384;51.418;7.286;2023-07-13T11:47:07;99960.38;;;23.17;52.13
55540;BME280;41384;51.418;7.286;2023-07-13T11:49:41;99962.28;;;23.16;51.50
55540;BME280;41384;51.418;7.286;2023-07-13T11:52:11;99961.91;;;23.23;50.63
55540;BME280;41384;51.418;7.286;2023-07-13T11:54:53;99966.25;;;23.24;50.41
55540;BME280;41384;51.418;7.286;2023-07-13T11:57:30;99950.72;;;23.40;50.10
55540;BME280;41384;51.418;7.286;2023-07-13T12:00:00;99953.69;;;23.39;50.10
55540;BME280;41384;51.418;7.286;2023-07-13T12:02:32;99956.75;;;23.32;49.74
55540;BME280;41384;51.418;7.286;2023-07-13T12:04:59;99952.66;;;23.35;48.49
55540;BME280;41384;51.418;7.286;2023-07-13T12:07:28;99937.59;;;23.34;48.91
55540;BME280;41384;51.418;7.286;2023-07-13T12:10:00;99936.44;;;23.40;48.35
55540;BME280;41384;51.418;7.286;2023-07-13T12:12:28;99932.94;;;23.39;48.61
55540;BME280;41384;51.418;7.286;2023-07-13T12:14:54;99943.38;;;23.46;49.18
55540;BME280;41384;51.418;7.286;2023-07-13T12:17:21;99938.41;;;23.72;48.09
55540;BME280;41384;51.418;7.286;2023-07-13T12:19:48;99944.97;;;23.85;46.82
55540;BME280;41384;51.418;7.286;2023-07-13T12:22:16;99950.28;;;23.71;46.81
55540;BME280;41384;51.418;7.286;2023-07-13T12:24:43;99942.06;;;23.63;46.41
55540;BME280;41384;51.418;7.286;2023-07-13T12:27:23;99941.34;;;23.76;46.73
55540;BME280;41384;51.418;7.286;2023-07-13T12:29:58;99935.66;;;23.97;46.84
55540;BME280;41384;51.418;7.286;2023-07-13T12:32:24;99937.63;;;23.72;47.27
55540;BME280;41384;51.418;7.286;2023-07-13T12:37:44;99933.25;;;23.95;46.90
55540;BME280;41384;51.418;7.286;2023-07-13T12:40:16;99937.19;;;24.03;46.38
55540;BME280;41384;51.418;7.286;2023-07-13T12:42:46;99934.34;;;23.75;45.60
55540;BME280;41384;51.418;7.286;2023-07-13T12:47:48;99945.78;;;23.67;47.29
55540;BME280;41384;51.418;7.286;2023-07-13T12:50:23;99946.38;;;24.02;47.09
55540;BME280;41384;51.418;7.286;2023-07-13T12:52:54;99941.28;;;24.00;46.87
55540;BME280;41384;51.418;7.286;2023-07-13T12:55:22;99948.78;;;23.84;47.65
55540;BME280;41384;51.418;7.286;2023-07-13T12:57:54;99941.06;;;24.16;47.32
55540;BME280;41384;51.418;7.286;2023-07-13T13:00:28;99940.38;;;24.24;46.26
55540;BME280;41384;51.418;7.286;2023-07-13T13:02:55;99933.13;;;24.39;45.38
55540;BME280;41384;51.418;7.286;2023-07-13T13:05:21;99932.97;;;24.30;45.05
55540;BME280;41384;51.418;7.286;2023-07-13T13:07:49;99939.22;;;23.73;45.74
55540;BME280;41384;51.418;7.286;2023-07-13T13:10:14;99938.28;;;23.83;46.40
55540;BME280;41384;51.418;7.286;2023-07-13T13:12:40;99944.25;;;23.60;46.51
55540;BME280;41384;51.418;7.286;2023-07-13T13:15:09;99939.38;;;23.63;46.01
55540;BME280;41384;51.418;7.286;2023-07-13T13:17:36;99938.44;;;24.11;45.53
55540;BME280;41384;51.418;7.286;2023-07-13T13:20:12;99949.63;;;23.99;45.52
55540;BME280;41384;51.418;7.286;2023-07-13T13:22:38;99948.25;;;23.82;46.43
55540;BME280;41384;51.418;7.286;2023-07-13T13:25:04;99950.88;;;23.49;46.87